sensor_id;sensor_type;location;lat;lon;timestamp;pressure;altitude;pressure_sealevel;temperature;humidity
52719;BME280;38616;42.140;24.760;2022-09-03T00:00:25;99325.66;;;21.47;75.74
52719;BME280;38616;42.140;24.760;2022-09-03T00:03:09;99328.41;;;21.47;76.44
52719;BME280;38616;42.140;24.760;2022-09-03T00:05:42;99329.06;;;21.24;76.89
52719;BME280;38616;42.140;24.760;2022-09-03T00:13:08;99330.09;;;21.16;77.63
52719;BME280;38616;42.140;24.760;2022-09-03T00:15:36;99334.34;;;21.13;78.03
52719;BME280;38616;42.140;24.760;2022-09-03T00:18:05;99333.81;;;21.23;77.25
52719;BME280;38616;42.140;24.760;2022-09-03T00:23:02;99338.09;;;20.73;79.22
52719;BME280;38616;42.140;24.760;2022-09-03T00:25:46;99332.13;;;20.71;79.49
52719;BME280;38616;42.140;24.760;2022-09-03T00:28:18;99336.69;;;20.79;79.70
52719;BME280;38616;42.140;24.760;2022-09-03T00:30:46;99336.34;;;20.80;79.14
52719;BME280;38616;42.140;24.760;2022-09-03T00:33:21;99335.97;;;20.82;79.33
52719;BME280;38616;42.140;24.760;2022-09-03T00:35:50;99337.03;;;20.61;79.83
52719;BME280;38616;42.140;24.760;2022-09-03T00:38:18;99327.16;;;21.08;78.20
52719;BME280;38616;42.140;24.760;2022-09-03T00:40:59;99329.66;;;21.14;77.33
52719;BME280;38616;42.140;24.760;2022-09-03T00:43:36;99329.25;;;21.31;76.91
52719;BME280;38616;42.140;24.760;2022-09-03T00:48:56;99322.28;;;21.37;75.98
52719;BME280;38616;42.140;24.760;2022-09-03T00:51:25;99322.72;;;21.39;76.12
52719;BME280;38616;42.140;24.760;2022-09-03T00:53:59;99322.59;;;21.52;75.80
52719;BME280;38616;42.140;24.760;2022-09-03T00:56:32;99317.03;;;21.68;74.76
52719;BME280;38616;42.140;24.760;2022-09-03T00:59:07;99324.59;;;21.35;76.01
52719;BME280;38616;42.140;24.760;2022-09-03T01:04:13;99317.75;;;21.29;76.02
52719;BME280;38616;42.140;24.760;2022-09-03T01:06:49;99327.78;;;21.02;76.51
52719;BME280;38616;42.140;24.760;2022-09-03T01:17:06;99325.38;;;21.00;76.58
52719;BME280;38616;42.140;24.760;2022-09-03T01:27:03;99327.25;;;20.80;76.71
52719;BME280;38616;42.140;24.760;2022-09-03T01:37:24;99329.91;;;20.60;78.35
52719;BME280;38616;42.140;24.760;2022-09-03T01:40:05;99331.84;;;20.60;78.32
52719;BME280;38616;42.140;24.760;2022-09-03T01:58:50;99322.25;;;20.70;76.48
52719;BME280;38616;42.140;24.760;2022-09-03T02:01:22;99328.56;;;20.70;75.66
52719;BME280;38616;42.140;24.760;2022-09-03T02:03:50;99312.59;;;20.47;76.54
52719;BME280;38616;42.140;24.760;2022-09-03T02:06:16;99319.19;;;20.59;75.74
52719;BME280;38616;42.140;24.760;2022-09-03T02:08:42;99325.31;;;20.36;76.46
52719;BME280;38616;42.140;24.760;2022-09-03T02:11:08;99322.66;;;20.56;75.56
52719;BME280;38616;42.140;24.760;2022-09-03T02:13:35;99335.72;;;20.27;76.57
52719;BME280;38616;42.140;24.760;2022-09-03T02:16:04;99339.91;;;20.36;76.06
52719;BME280;38616;42.140;24.760;2022-09-03T02:18:35;99329.75;;;20.25;76.66
52719;BME280;38616;42.140;24.760;2022-09-03T02:21:01;99339.75;;;20.45;76.35
52719;BME280;38616;42.140;24.760;2022-09-03T02:23:27;99340.44;;;20.42;76.08
52719;BME280;38616;42.140;24.760;2022-09-03T02:25:56;99344.94;;;20.63;74.88
52719;BME280;38616;42.140;24.760;2022-09-03T02:28:22;99348.13;;;20.49;75.62
52719;BME280;38616;42.140;24.760;2022-09-03T02:30:47;99350.38;;;20.59;75.51
52719;BME280;38616;42.140;24.760;2022-09-03T02:33:13;99348.94;;;20.65;74.82
52719;BME280;38616;42.140;24.760;2022-09-03T02:35:39;99359.81;;;20.58;74.51
52719;BME280;38616;42.140;24.760;2022-09-03T02:38:09;99359.03;;;20.74;74.05
52719;BME280;38616;42.140;24.760;2022-09-03T02:40:34;99351.63;;;20.78;74.04
52719;BME280;38616;42.140;24.760;2022-09-03T02:42:59;99360.88;;;20.70;73.26
52719;BME280;38616;42.140;24.760;2022-09-03T02:45:26;99363.59;;;20.37;74.58
52719;BME280;38616;42.140;24.760;2022-09-03T02:47:55;99355.03;;;20.27;74.85
52719;BME280;38616;42.140;24.760;2022-09-03T02:50:23;99363.91;;;20.36;74.79
52719;BME280;38616;42.140;24.760;2022-09-03T02:52:48;99359.41;;;20.44;74.39
52719;BME280;38616;42.140;24.760;2022-09-03T02:55:14;99358.25;;;20.45;73.97
52719;BME280;38616;42.140;24.760;2022-09-03T02:57:39;99359.81;;;20.58;73.57
52719;BME280;38616;42.140;24.760;2022-09-03T03:00:05;99361.81;;;20.45;73.56
52719;BME280;38616;42.140;24.760;2022-09-03T03:02:31;99360.00;;;20.65;72.87
52719;BME280;38616;42.140;24.760;2022-09-03T03:04:56;99369.63;;;20.43;73.22
52719;BME280;38616;42.140;24.760;2022-09-03T03:07:22;99359.94;;;20.33;74.07
52719;BME280;38616;42.140;24.760;2022-09-03T03:09:47;99357.44;;;20.44;73.76
52719;BME280;38616;42.140;24.760;2022-09-03T03:12:12;99361.81;;;20.45;73.78
52719;BME280;38616;42.140;24.760;2022-09-03T03:14:37;99358.44;;;20.52;73.35
52719;BME280;38616;42.140;24.760;2022-09-03T03:17:03;99358.66;;;20.59;72.62
52719;BME280;38616;42.140;24.760;2022-09-03T03:19:28;99365.59;;;20.69;72.07
52719;BME280;38616;42.140;24.760;2022-09-03T03:21:53;99354.06;;;20.79;71.39
52719;BME280;38616;42.140;24.760;2022-09-03T03:24:19;99349.56;;;20.59;72.11
52719;BME280;38616;42.140;24.760;2022-09-03T03:26:44;99358.06;;;20.82;71.14
52719;BME280;38616;42.140;24.760;2022-09-03T03:29:13;99354.13;;;20.83;70.99
52719;BME280;38616;42.140;24.760;2022-09-03T03:31:38;99357.88;;;20.91;70.82
52719;BME280;38616;42.140;24.760;2022-09-03T03:34:03;99351.28;;;20.79;70.68
52719;BME280;38616;42.140;24.760;2022-09-03T03:36:30;99357.97;;;20.78;70.74
52719;BME280;38616;42.140;24.760;2022-09-03T03:38:57;99350.09;;;20.64;71.87
52719;BME280;38616;42.140;24.760;2022-09-03T03:41:24;99350.84;;;20.93;70.32
52719;BME280;38616;42.140;24.760;2022-09-03T03:43:56;99349.63;;;20.91;70.13
52719;BME280;38616;42.140;24.760;2022-09-03T03:46:22;99357.31;;;20.69;70.72
52719;BME280;38616;42.140;24.760;2022-09-03T03:48:48;99357.25;;;20.37;71.97
52719;BME280;38616;42.140;24.760;2022-09-03T03:53:39;99362.00;;;20.52;71.58
52719;BME280;38616;42.140;24.760;2022-09-03T03:56:06;99353.91;;;20.44;72.04
52719;BME280;38616;42.140;24.760;2022-09-03T03:58:32;99353.56;;;20.61;71.20
52719;BME280;38616;42.140;24.760;2022-09-03T04:01:04;99360.13;;;20.57;71.19
52719;BME280;38616;42.140;24.760;2022-09-03T04:03:30;99358.28;;;20.61;71.00
52719;BME280;38616;42.140;24.760;2022-09-03T04:05:56;99351.47;;;20.42;71.56
52719;BME280;38616;42.140;24.760;2022-09-03T04:08:21;99362.38;;;20.67;71.30
52719;BME280;38616;42.140;24.760;2022-09-03T04:10:47;99364.56;;;20.45;71.14
52719;BME280;38616;42.140;24.760;2022-09-03T04:13:12;99364.38;;;20.38;71.65
52719;BME280;38616;42.140;24.760;2022-09-03T04:15:38;99366.28;;;20.66;70.50
52719;BME280;38616;42.140;24.760;2022-09-03T04:18:03;99364.47;;;20.42;71.24
52719;BME280;38616;42.140;24.760;2022-09-03T04:20:29;99375.78;;;20.36;71.17
52719;BME280;38616;42.140;24.760;2022-09-03T04:22:54;99377.47;;;20.13;72.02
52719;BME280;38616;42.140;24.760;2022-09-03T04:25:20;99367.78;;;20.19;72.15
52719;BME280;38616;42.140;24.760;2022-09-03T04:27:45;99367.59;;;20.12;72.35
52719;BME280;38616;42.140;24.760;2022-09-03T04:30:10;99366.63;;;19.91;73.09
52719;BME280;38616;42.140;24.760;2022-09-03T04:32:36;99370.88;;;19.89;72.74
52719;BME280;38616;42.140;24.760;2022-09-03T04:35:24;99372.59;;;19.81;73.48
52719;BME280;38616;42.140;24.760;2022-09-03T04:37:49;99376.31;;;19.48;74.43
52719;BME280;38616;42.140;24.760;2022-09-03T04:40:15;99379.97;;;19.52;74.21
52719;BME280;38616;42.140;24.760;2022-09-03T04:42:40;99378.59;;;19.58;73.67
52719;BME280;38616;42.140;24.760;2022-09-03T04:45:06;99377.13;;;19.48;73.90
52719;BME280;38616;42.140;24.760;2022-09-03T04:47:31;99371.94;;;19.72;73.42
52719;BME280;38616;42.140;24.760;2022-09-03T04:49:56;99388.38;;;19.56;73.53
52719;BME280;38616;42.140;24.760;2022-09-03T04:52:22;99390.00;;;19.44;74.05
52719;BME280;38616;42.140;24.760;2022-09-03T04:54:48;99396.84;;;19.75;73.60
52719;BME280;38616;42.140;24.760;2022-09-03T04:57:13;99397.03;;;19.95;72.33
52719;BME280;38616;42.140;24.760;2022-09-03T04:59:38;99397.25;;;20.02;71.54
52719;BME280;38616;42.140;24.760;2022-09-03T05:02:05;99404.56;;;20.23;71.41
52719;BME280;38616;42.140;24.760;2022-09-03T05:04:30;99395.63;;;20.42;70.44
52719;BME280;38616;42.140;24.760;2022-09-03T05:06:55;99408.97;;;20.40;70.51
52719;BME280;38616;42.140;24.760;2022-09-03T05:09:21;99406.56;;;20.38;71.07
52719;BME280;38616;42.140;24.760;2022-09-03T05:11:46;99395.50;;;20.67;70.13
52719;BME280;38616;42.140;24.760;2022-09-03T05:14:12;99412.47;;;20.53;70.20
52719;BME280;38616;42.140;24.760;2022-09-03T05:16:37;99406.53;;;20.67;70.11
52719;BME280;38616;42.140;24.760;2022-09-03T05:19:02;99409.34;;;20.55;70.65
52719;BME280;38616;42.140;24.760;2022-09-03T05:21:32;99415.69;;;20.55;70.43
52719;BME280;38616;42.140;24.760;2022-09-03T05:24:00;99421.50;;;20.66;70.33
52719;BME280;38616;42.140;24.760;2022-09-03T05:26:26;99422.66;;;20.65;69.99
52719;BME280;38616;42.140;24.760;2022-09-03T05:28:53;99428.78;;;20.87;70.28
52719;BME280;38616;42.140;24.760;2022-09-03T05:31:19;99434.03;;;20.92;69.71
52719;BME280;38616;42.140;24.760;2022-09-03T05:33:46;99432.03;;;20.48;70.87
52719;BME280;38616;42.140;24.760;2022-09-03T05:36:12;99431.22;;;20.47;71.27
52719;BME280;38616;42.140;24.760;2022-09-03T05:38:38;99426.81;;;20.87;70.20
52719;BME280;38616;42.140;24.760;2022-09-03T05:41:05;99426.72;;;20.84;68.95
52719;BME280;38616;42.140;24.760;2022-09-03T05:43:31;99440.91;;;20.70;70.17
52719;BME280;38616;42.140;24.760;2022-09-03T05:45:57;99437.50;;;20.89;69.12
52719;BME280;38616;42.140;24.760;2022-09-03T05:48:23;99432.50;;;20.50;70.20
52719;BME280;38616;42.140;24.760;2022-09-03T05:50:48;99432.53;;;20.66;69.62
52719;BME280;38616;42.140;24.760;2022-09-03T05:53:14;99436.81;;;20.63;69.19
52719;BME280;38616;42.140;24.760;2022-09-03T05:55:40;99434.94;;;20.96;68.43
52719;BME280;38616;42.140;24.760;2022-09-03T05:58:06;99438.47;;;20.80;68.27
52719;BME280;38616;42.140;24.760;2022-09-03T06:00:31;99443.94;;;20.64;68.62
52719;BME280;38616;42.140;24.760;2022-09-03T06:02:56;99432.25;;;20.84;68.78
52719;BME280;38616;42.140;24.760;2022-09-03T06:05:22;99427.09;;;21.14;68.13
52719;BME280;38616;42.140;24.760;2022-09-03T06:07:48;99431.28;;;21.40;66.97
52719;BME280;38616;42.140;24.760;2022-09-03T06:10:14;99437.50;;;21.21;67.51
52719;BME280;38616;42.140;24.760;2022-09-03T06:12:40;99445.09;;;21.40;66.79
52719;BME280;38616;42.140;24.760;2022-09-03T06:15:06;99441.06;;;21.37;67.23
52719;BME280;38616;42.140;24.760;2022-09-03T06:17:31;99439.84;;;21.35;67.54
52719;BME280;38616;42.140;24.760;2022-09-03T06:19:57;99437.16;;;21.54;66.14
52719;BME280;38616;42.140;24.760;2022-09-03T06:22:22;99442.69;;;21.70;66.11
52719;BME280;38616;42.140;24.760;2022-09-03T06:24:49;99442.19;;;21.84;66.20
52719;BME280;38616;42.140;24.760;2022-09-03T06:27:14;99445.44;;;21.70;66.29
52719;BME280;38616;42.140;24.760;2022-09-03T06:29:40;99442.03;;;21.61;66.56
52719;BME280;38616;42.140;24.760;2022-09-03T06:32:05;99444.84;;;21.97;65.51
52719;BME280;38616;42.140;24.760;2022-09-03T06:34:30;99444.34;;;21.91;65.33
52719;BME280;38616;42.140;24.760;2022-09-03T06:36:56;99437.38;;;21.81;65.55
52719;BME280;38616;42.140;24.760;2022-09-03T06:39:22;99439.63;;;22.11;64.20
52719;BME280;38616;42.140;24.760;2022-09-03T06:41:48;99447.28;;;22.38;64.20
52719;BME280;38616;42.140;24.760;2022-09-03T06:44:15;99450.22;;;22.45;63.42
52719;BME280;38616;42.140;24.760;2022-09-03T06:46:41;99437.69;;;22.71;62.94
52719;BME280;38616;42.140;24.760;2022-09-03T06:49:07;99451.25;;;22.56;62.87
52719;BME280;38616;42.140;24.760;2022-09-03T06:51:32;99456.09;;;22.63;63.20
52719;BME280;38616;42.140;24.760;2022-09-03T06:54:05;99462.00;;;22.42;63.63
52719;BME280;38616;42.140;24.760;2022-09-03T06:56:31;99450.66;;;21.92;64.67
52719;BME280;38616;42.140;24.760;2022-09-03T06:58:58;99441.28;;;21.96;64.80
52719;BME280;38616;42.140;24.760;2022-09-03T07:01:27;99450.59;;;21.88;65.18
52719;BME280;38616;42.140;24.760;2022-09-03T07:03:55;99450.03;;;21.98;65.41
52719;BME280;38616;42.140;24.760;2022-09-03T07:06:22;99449.31;;;22.02;65.15
52719;BME280;38616;42.140;24.760;2022-09-03T07:08:48;99456.53;;;22.26;64.40
52719;BME280;38616;42.140;24.760;2022-09-03T07:11:17;99455.72;;;22.25;64.76
52719;BME280;38616;42.140;24.760;2022-09-03T07:13:44;99456.03;;;22.60;63.67
52719;BME280;38616;42.140;24.760;2022-09-03T07:16:11;99453.13;;;22.72;62.71
52719;BME280;38616;42.140;24.760;2022-09-03T07:18:36;99458.06;;;22.43;63.66
52719;BME280;38616;42.140;24.760;2022-09-03T07:21:03;99452.84;;;22.57;63.74
52719;BME280;38616;42.140;24.760;2022-09-03T07:23:29;99457.78;;;22.48;63.30
52719;BME280;38616;42.140;24.760;2022-09-03T07:25:55;99448.22;;;22.65;62.85
52719;BME280;38616;42.140;24.760;2022-09-03T07:28:21;99462.78;;;22.82;61.98
52719;BME280;38616;42.140;24.760;2022-09-03T07:30:48;99455.53;;;22.97;62.09
52719;BME280;38616;42.140;24.760;2022-09-03T07:33:14;99453.13;;;23.38;61.56
52719;BME280;38616;42.140;24.760;2022-09-03T07:35:39;99457.03;;;23.60;60.23
52719;BME280;38616;42.140;24.760;2022-09-03T07:38:04;99467.38;;;23.64;60.26
52719;BME280;38616;42.140;24.760;2022-09-03T07:40:30;99461.78;;;23.60;59.85
52719;BME280;38616;42.140;24.760;2022-09-03T07:42:57;99477.25;;;23.61;59.91
52719;BME280;38616;42.140;24.760;2022-09-03T07:45:28;99481.91;;;23.10;60.21
52719;BME280;38616;42.140;24.760;2022-09-03T07:47:53;99458.22;;;23.36;59.70
52719;BME280;38616;42.140;24.760;2022-09-03T07:50:19;99460.97;;;23.86;58.57
52719;BME280;38616;42.140;24.760;2022-09-03T07:52:44;99462.94;;;23.86;56.80
52719;BME280;38616;42.140;24.760;2022-09-03T07:55:09;99471.91;;;23.49;57.46
52719;BME280;38616;42.140;24.760;2022-09-03T07:57:35;99468.72;;;23.23;57.49
52719;BME280;38616;42.140;24.760;2022-09-03T08:00:00;99467.84;;;23.42;57.52
52719;BME280;38616;42.140;24.760;2022-09-03T08:02:26;99466.03;;;23.54;56.73
52719;BME280;38616;42.140;24.760;2022-09-03T08:04:51;99460.19;;;23.59;56.76
52719;BME280;38616;42.140;24.760;2022-09-03T08:07:16;99451.34;;;23.76;57.19
52719;BME280;38616;42.140;24.760;2022-09-03T08:09:41;99459.66;;;24.03;57.23
52719;BME280;38616;42.140;24.760;2022-09-03T08:12:07;99457.63;;;24.31;57.35
52719;BME280;38616;42.140;24.760;2022-09-03T08:14:32;99458.47;;;24.69;56.80
52719;BME280;38616;42.140;24.760;2022-09-03T08:16:57;99453.44;;;24.44;57.02
52719;BME280;38616;42.140;24.760;2022-09-03T08:19:24;99465.19;;;24.34;55.79
52719;BME280;38616;42.140;24.760;2022-09-03T08:21:49;99454.81;;;24.27;56.26
52719;BME280;38616;42.140;24.760;2022-09-03T08:24:15;99451.63;;;24.25;55.14
52719;BME280;38616;42.140;24.760;2022-09-03T08:26:41;99444.34;;;24.47;55.15
52719;BME280;38616;42.140;24.760;2022-09-03T08:29:06;99456.94;;;24.07;55.29
52719;BME280;38616;42.140;24.760;2022-09-03T08:31:32;99444.75;;;23.88;55.66
52719;BME280;38616;42.140;24.760;2022-09-03T08:33:59;99451.53;;;24.18;55.61
52719;BME280;38616;42.140;24.760;2022-09-03T08:36:30;99444.91;;;24.60;55.19
52719;BME280;38616;42.140;24.760;2022-09-03T08:38:57;99443.19;;;24.86;54.34
52719;BME280;38616;42.140;24.760;2022-09-03T08:49:06;99439.84;;;25.07;52.44
52719;BME280;38616;42.140;24.760;2022-09-03T08:51:34;99437.28;;;25.33;51.72
52719;BME280;38616;42.140;24.760;2022-09-03T08:54:04;99435.47;;;25.51;51.87
52719;BME280;38616;42.140;24.760;2022-09-03T08:56:31;99433.94;;;25.58;51.41
52719;BME280;38616;42.140;24.760;2022-09-03T08:59:00;99431.13;;;25.09;51.29
52719;BME280;38616;42.140;24.760;2022-09-03T09:01:42;99419.50;;;24.96;51.51
52719;BME280;38616;42.140;24.760;2022-09-03T09:14:44;99433.19;;;25.68;51.51
52719;BME280;38616;42.140;24.760;2022-09-03T09:17:20;99427.84;;;26.11;50.91
52719;BME280;38616;42.140;24.760;2022-09-03T09:20:14;99437.31;;;25.92;49.90
52719;BME280;38616;42.140;24.760;2022-09-03T09:22:37;99441.63;;;25.82;50.18
52719;BME280;38616;42.140;24.760;2022-09-03T09:25:11;99443.66;;;25.37;51.14
52719;BME280;38616;42.140;24.760;2022-09-03T09:30:23;99423.19;;;25.56;51.15
52719;BME280;38616;42.140;24.760;2022-09-03T09:32:49;99436.44;;;25.81;49.60
52719;BME280;38616;42.140;24.760;2022-09-03T09:35:15;99437.56;;;25.69;49.77
52719;BME280;38616;42.140;24.760;2022-09-03T09:40:21;99423.03;;;26.01;49.54
52719;BME280;38616;42.140;24.760;2022-09-03T09:42:47;99431.94;;;26.25;48.84
52719;BME280;38616;42.140;24.760;2022-09-03T09:45:13;99433.50;;;26.19;48.50
52719;BME280;38616;42.140;24.760;2022-09-03T09:47:38;99423.38;;;25.89;49.68
52719;BME280;38616;42.140;24.760;2022-09-03T09:50:13;99426.22;;;26.00;48.76
52719;BME280;38616;42.140;24.760;2022-09-03T09:52:39;99429.00;;;26.03;48.50
52719;BME280;38616;42.140;24.760;2022-09-03T09:55:06;99426.22;;;26.03;49.20
52719;BME280;38616;42.140;24.760;2022-09-03T09:57:32;99427.19;;;26.36;48.83
52719;BME280;38616;42.140;24.760;2022-09-03T10:00:08;99436.69;;;26.21;48.85
52719;BME280;38616;42.140;24.760;2022-09-03T10:02:36;99425.56;;;26.24;48.12
52719;BME280;38616;42.140;24.760;2022-09-03T10:05:14;99431.75;;;25.96;48.99
52719;BME280;38616;42.140;24.760;2022-09-03T10:07:53;99426.34;;;26.21;48.15
52719;BME280;38616;42.140;24.760;2022-09-03T10:10:19;99423.50;;;26.14;49.16
52719;BME280;38616;42.140;24.760;2022-09-03T10:12:48;99426.34;;;26.18;48.95
52719;BME280;38616;42.140;24.760;2022-09-03T10:15:32;99424.78;;;26.24;48.13
52719;BME280;38616;42.140;24.760;2022-09-03T10:18:21;99413.66;;;26.31;48.56
52719;BME280;38616;42.140;24.760;2022-09-03T10:23:49;99405.31;;;26.31;47.38
52719;BME280;38616;42.140;24.760;2022-09-03T10:26:18;99400.88;;;26.19;48.32
52719;BME280;38616;42.140;24.760;2022-09-03T10:28:47;99403.38;;;26.50;48.59
52719;BME280;38616;42.140;24.760;2022-09-03T10:33:46;99402.69;;;26.93;48.36
52719;BME280;38616;42.140;24.760;2022-09-03T10:36:17;99395.53;;;27.17;47.67
52719;BME280;38616;42.140;24.760;2022-09-03T10:38:44;99395.91;;;27.08;47.68
52719;BME280;38616;42.140;24.760;2022-09-03T10:41:27;99395.91;;;27.05;47.86
52719;BME280;38616;42.140;24.760;2022-09-03T10:46:45;99399.50;;;27.02;47.04
52719;BME280;38616;42.140;24.760;2022-09-03T10:49:27;99387.13;;;27.13;47.03
52719;BME280;38616;42.140;24.760;2022-09-03T11:07:20;99394.72;;;27.27;47.06
52719;BME280;38616;42.140;24.760;2022-09-03T11:09:50;99406.66;;;26.84;46.01
52719;BME280;38616;42.140;24.760;2022-09-03T11:12:30;99406.97;;;26.68;46.43
52719;BME280;38616;42.140;24.760;2022-09-03T11:15:01;99399.09;;;27.28;45.26
52719;BME280;38616;42.140;24.760;2022-09-03T11:17:31;99401.09;;;27.28;45.36
52719;BME280;38616;42.140;24.760;2022-09-03T11:20:09;99395.09;;;27.33;45.82
52719;BME280;38616;42.140;24.760;2022-09-03T11:22:36;99392.31;;;27.48;45.82
52719;BME280;38616;42.140;24.760;2022-09-03T11:25:03;99385.88;;;27.76;45.82
52719;BME280;38616;42.140;24.760;2022-09-03T11:30:06;99383.94;;;27.44;44.88
52719;BME280;38616;42.140;24.760;2022-09-03T11:35:00;99386.72;;;27.69;45.90
52719;BME280;38616;42.140;24.760;2022-09-03T11:37:26;99388.63;;;27.87;44.38
52719;BME280;38616;42.140;24.760;2022-09-03T11:42:37;99384.31;;;27.79;44.06
52719;BME280;38616;42.140;24.760;2022-09-03T11:48:01;99381.94;;;27.66;44.13
52719;BME280;38616;42.140;24.760;2022-09-03T11:50:28;99376.31;;;27.77;43.67
52719;BME280;38616;42.140;24.760;2022-09-03T11:53:05;99369.50;;;27.85;43.48
52719;BME280;38616;42.140;24.760;2022-09-03T11:55:32;99370.00;;;27.55;43.20
52719;BME280;38616;42.140;24.760;2022-09-03T11:57:58;99385.91;;;27.47;43.49
52719;BME280;38616;42.140;24.760;2022-09-03T12:00:34;99386.72;;;27.58;43.42
52719;BME280;38616;42.140;24.760;2022-09-03T12:03:02;99384.31;;;27.68;43.14
52719;BME280;38616;42.140;24.760;2022-09-03T12:08:02;99375.97;;;27.35;42.92
52719;BME280;38616;42.140;24.760;2022-09-03T12:10:37;99381.97;;;27.16;43.22
52719;BME280;38616;42.140;24.760;2022-09-03T12:13:11;99370.00;;;27.62;43.24
52719;BME280;38616;42.140;24.760;2022-09-03T12:18:28;99373.56;;;27.66;43.29
52719;BME280;38616;42.140;24.760;2022-09-03T12:23:31;99367.75;;;28.28;42.51
52719;BME280;38616;42.140;24.760;2022-09-03T12:26:06;99365.03;;;28.21;42.59
52719;BME280;38616;42.140;24.760;2022-09-03T12:28:35;99371.06;;;28.01;41.47
52719;BME280;38616;42.140;24.760;2022-09-03T12:31:05;99373.84;;;27.97;41.58
52719;BME280;38616;42.140;24.760;2022-09-03T12:33:32;99376.28;;;27.92;41.73
52719;BME280;38616;42.140;24.760;2022-09-03T12:35:58;99373.44;;;28.02;41.19
52719;BME280;38616;42.140;24.760;2022-09-03T12:38:25;99368.63;;;28.07;40.99
52719;BME280;38616;42.140;24.760;2022-09-03T12:40:50;99373.78;;;28.12;40.72
52719;BME280;38616;42.140;24.760;2022-09-03T12:43:16;99366.38;;;27.72;41.03
52719;BME280;38616;42.140;24.760;2022-09-03T12:45:43;99362.56;;;28.30;40.17
52719;BME280;38616;42.140;24.760;2022-09-03T12:48:19;99366.06;;;28.45;40.00
52719;BME280;38616;42.140;24.760;2022-09-03T12:50:45;99369.44;;;28.14;38.76
52719;BME280;38616;42.140;24.760;2022-09-03T12:53:21;99365.84;;;28.10;39.78
52719;BME280;38616;42.140;24.760;2022-09-03T12:55:52;99352.53;;;28.36;39.67
52719;BME280;38616;42.140;24.760;2022-09-03T12:58:35;99357.56;;;28.63;38.86
52719;BME280;38616;42.140;24.760;2022-09-03T13:01:10;99349.78;;;28.33;38.37
52719;BME280;38616;42.140;24.760;2022-09-03T13:03:45;99355.34;;;28.36;39.44
52719;BME280;38616;42.140;24.760;2022-09-03T13:06:13;99350.00;;;28.60;39.12
52719;BME280;38616;42.140;24.760;2022-09-03T13:08:53;99365.03;;;28.21;39.44
52719;BME280;38616;42.140;24.760;2022-09-03T13:11:19;99357.88;;;28.01;39.41
52719;BME280;38616;42.140;24.760;2022-09-03T13:14:27;99357.44;;;28.17;38.97
52719;BME280;38616;42.140;24.760;2022-09-03T13:21:43;99360.22;;;28.25;38.99
52719;BME280;38616;42.140;24.760;2022-09-03T13:24:18;99351.38;;;28.30;38.16
52719;BME280;38616;42.140;24.760;2022-09-03T13:26:54;99366.22;;;28.16;38.99
52719;BME280;38616;42.140;24.760;2022-09-03T13:31:55;99369.56;;;27.71;38.44
52719;BME280;38616;42.140;24.760;2022-09-03T13:34:24;99356.69;;;28.02;38.80
52719;BME280;38616;42.140;24.760;2022-09-03T13:37:14;99362.50;;;28.37;38.89
52719;BME280;38616;42.140;24.760;2022-09-03T13:39:47;99369.03;;;28.12;38.47
52719;BME280;38616;42.140;24.760;2022-09-03T13:42:32;99364.16;;;28.27;38.81
52719;BME280;38616;42.140;24.760;2022-09-03T13:45:11;99365.03;;;28.21;39.19
52719;BME280;38616;42.140;24.760;2022-09-03T13:50:48;99369.41;;;28.11;38.61
52719;BME280;38616;42.140;24.760;2022-09-03T13:53:19;99358.66;;;28.06;38.60
52719;BME280;38616;42.140;24.760;2022-09-03T13:55:58;99358.59;;;28.27;38.36
52719;BME280;38616;42.140;24.760;2022-09-03T14:01:26;99361.03;;;28.22;39.04
52719;BME280;38616;42.140;24.760;2022-09-03T14:03:56;99374.34;;;27.78;39.62
52719;BME280;38616;42.140;24.760;2022-09-03T14:12:43;99370.59;;;28.21;40.02
52719;BME280;38616;42.140;24.760;2022-09-03T14:22:17;99374.06;;;28.39;38.65
52719;BME280;38616;42.140;24.760;2022-09-03T14:24:58;99373.81;;;28.08;38.60
52719;BME280;38616;42.140;24.760;2022-09-03T14:27:29;99378.28;;;27.84;38.95
52719;BME280;38616;42.140;24.760;2022-09-03T14:30:02;99378.66;;;27.93;39.10
52719;BME280;38616;42.140;24.760;2022-09-03T14:35:33;99388.31;;;27.70;40.49
52719;BME280;38616;42.140;24.760;2022-09-03T14:40:41;99391.91;;;27.46;40.80
52719;BME280;38616;42.140;24.760;2022-09-03T14:49:06;99390.22;;;27.92;41.43
52719;BME280;38616;42.140;24.760;2022-09-03T14:51:31;99395.38;;;28.04;40.66
52719;BME280;38616;42.140;24.760;2022-09-03T15:01:38;99392.28;;;27.44;41.16
52719;BME280;38616;42.140;24.760;2022-09-03T15:09:41;99407.06;;;27.37;41.12
52719;BME280;38616;42.140;24.760;2022-09-03T15:14:39;99401.47;;;27.63;40.99
52719;BME280;38616;42.140;24.760;2022-09-03T15:19:35;99402.97;;;27.96;40.38
52719;BME280;38616;42.140;24.760;2022-09-03T15:27:19;99406.59;;;27.82;40.66
52719;BME280;38616;42.140;24.760;2022-09-03T15:29:48;99415.81;;;27.57;41.01
52719;BME280;38616;42.140;24.760;2022-09-03T15:32:31;99417.44;;;27.29;41.57
52719;BME280;38616;42.140;24.760;2022-09-03T15:37:56;99420.59;;;27.53;41.18
52719;BME280;38616;42.140;24.760;2022-09-03T15:42:49;99428.97;;;27.24;41.79
52719;BME280;38616;42.140;24.760;2022-09-03T15:48:43;99434.53;;;27.39;40.76
52719;BME280;38616;42.140;24.760;2022-09-03T15:55:49;99440.13;;;27.17;40.69
52719;BME280;38616;42.140;24.760;2022-09-03T15:58:37;99448.47;;;27.03;40.66
52719;BME280;38616;42.140;24.760;2022-09-03T16:01:09;99442.41;;;26.72;41.05
52719;BME280;38616;42.140;24.760;2022-09-03T16:03:38;99432.53;;;26.89;41.18
52719;BME280;38616;42.140;24.760;2022-09-03T16:06:24;99428.16;;;27.17;40.64
52719;BME280;38616;42.140;24.760;2022-09-03T16:08:54;99436.91;;;27.04;41.09
52719;BME280;38616;42.140;24.760;2022-09-03T16:16:26;99429.78;;;27.21;40.76
52719;BME280;38616;42.140;24.760;2022-09-03T16:19:05;99436.50;;;26.95;41.11